Time;durP1;ratioP1;P1;durP2;ratioP2;P2;SDS_P1;SDS_P2;PMS_P1;PMS_P2;Temp;Humidity;BMP_temperature;BMP_pressure;BME280_temperature;BME280_humidity;BME280_pressure;Samples;Min_cycle;Max_cycle;Signal;HPM_P1;HPM_P2
2023/05/10 00:01:04;;;;;;;3.30;1.00;;;;;;;;;;5082645;28;20246;-69
2023/05/10 00:03:30;;;;;;;1.15;1.05;;;;;;;;;;5082440;28;20430;-69
2023/05/10 00:05:58;;;;;;;0.82;0.70;;;;;;;;;;5082279;28;20224;-69
2023/05/10 00:08:24;;;;;;;1.27;0.80;;;;;;;;;;5082188;28;20504;-69
2023/05/10 00:10:50;;;;;;;0.82;0.73;;;;;;;;;;5081937;28;20200;-69
2023/05/10 00:13:17;;;;;;;1.05;0.60;;;;;;;;;;5081937;28;20204;-69
2023/05/10 00:15:43;;;;;;;3.08;0.57;;;;;;;;;;5082316;28;20196;-69
2023/05/10 00:18:09;;;;;;;2.40;0.60;;;;;;;;;;5082113;28;20377;-69
2023/05/10 00:20:35;;;;;;;0.85;0.60;;;;;;;;;;5081866;28;20428;-69
2023/05/10 00:23:03;;;;;;;2.20;0.50;;;;;;;;;;5081896;28;20196;-69
2023/05/10 00:25:29;;;;;;;0.85;0.85;;;;;;;;;;5082006;28;20204;-69
2023/05/10 00:27:57;;;;;;;0.60;0.60;;;;;;;;;;5081740;28;20216;-69
2023/05/10 00:30:23;;;;;;;0.47;0.47;;;;;;;;;;5081783;28;20398;-69
2023/05/10 00:32:49;;;;;;;0.60;0.60;;;;;;;;;;5082085;28;20197;-69
2023/05/10 00:35:15;;;;;;;0.70;0.70;;;;;;;;;;5081908;28;20251;-69
2023/05/10 00:37:42;;;;;;;0.50;0.50;;;;;;;;;;5081904;28;20192;-69
2023/05/10 00:40:10;;;;;;;0.40;0.40;;;;;;;;;;5081576;28;20531;-69
2023/05/10 00:42:36;;;;;;;0.45;0.45;;;;;;;;;;5081535;28;20197;-69
2023/05/10 00:45:02;;;;;;;2.75;0.50;;;;;;;;;;5081884;28;20205;-69
2023/05/10 00:47:29;;;;;;;2.83;0.50;;;;;;;;;;5081995;28;20200;-69
2023/05/10 00:49:56;;;;;;;1.85;0.40;;;;;;;;;;5081933;28;20386;-69
2023/05/10 00:52:23;;;;;;;0.30;0.30;;;;;;;;;;5082008;28;20208;-69
2023/05/10 00:54:50;;;;;;;1.35;0.50;;;;;;;;;;5081632;28;20197;-69
2023/05/10 00:57:17;;;;;;;0.75;0.20;;;;;;;;;;5081773;28;20289;-69
2023/05/10 00:59:44;;;;;;;0.75;0.30;;;;;;;;;;5081708;28;20201;-69
2023/05/10 01:02:10;;;;;;;2.33;0.30;;;;;;;;;;5081256;28;20246;-69
2023/05/10 01:04:36;;;;;;;0.30;0.30;;;;;;;;;;5081454;28;20193;-69
2023/05/10 01:07:03;;;;;;;3.70;0.25;;;;;;;;;;5081509;28;20404;-69
2023/05/10 01:09:29;;;;;;;0.60;0.20;;;;;;;;;;5073071;28;20409;-69
2023/05/10 01:11:55;;;;;;;0.30;0.30;;;;;;;;;;5081614;28;20554;-69
2023/05/10 01:14:23;;;;;;;1.98;0.40;;;;;;;;;;5081223;28;20231;-69
2023/05/10 01:16:50;;;;;;;3.42;0.40;;;;;;;;;;5083269;28;20196;-69
2023/05/10 01:19:19;;;;;;;0.93;0.30;;;;;;;;;;5085311;28;20496;-69
2023/05/10 01:21:49;;;;;;;0.30;0.30;;;;;;;;;;5085440;28;20196;-69
2023/05/10 01:24:26;;;;;;;0.52;0.38;;;;;;;;;;5085503;28;20200;-69
2023/05/10 01:27:02;;;;;;;0.45;0.30;;;;;;;;;;5085479;28;20196;-69
2023/05/10 01:29:40;;;;;;;1.27;0.30;;;;;;;;;;5085062;28;20224;-69
2023/05/10 01:32:14;;;;;;;0.20;0.20;;;;;;;;;;5085368;28;20199;-69
2023/05/10 01:34:43;;;;;;;2.83;0.30;;;;;;;;;;5085396;28;20196;-69
2023/05/10 01:37:14;;;;;;;0.20;0.15;;;;;;;;;;5085042;28;20554;-69
2023/05/10 01:39:43;;;;;;;0.30;0.30;;;;;;;;;;5085065;28;20196;-69
2023/05/10 01:42:11;;;;;;;0.20;0.20;;;;;;;;;;5084807;28;20193;-69
2023/05/10 01:44:40;;;;;;;3.45;0.25;;;;;;;;;;5085196;28;20242;-69
2023/05/10 01:47:08;;;;;;;2.05;0.32;;;;;;;;;;5085118;28;20200;-69
2023/05/10 01:49:37;;;;;;;0.55;0.40;;;;;;;;;;5084864;28;20213;-69
2023/05/10 01:52:07;;;;;;;0.45;0.20;;;;;;;;;;5084783;28;20196;-69
2023/05/10 01:54:33;;;;;;;1.45;0.63;;;;;;;;;;5076745;28;20196;-69
2023/05/10 01:57:02;;;;;;;5.78;0.75;;;;;;;;;;5085065;28;20223;-69
2023/05/10 01:59:31;;;;;;;2.38;0.55;;;;;;;;;;5084762;28;20192;-69
2023/05/10 02:01:58;;;;;;;0.45;0.45;;;;;;;;;;5084795;28;20197;-69
2023/05/10 02:04:26;;;;;;;0.40;0.40;;;;;;;;;;5084587;28;20200;-69
2023/05/10 02:06:53;;;;;;;1.90;0.43;;;;;;;;;;5084563;28;20550;-69
2023/05/10 02:09:20;;;;;;;0.50;0.40;;;;;;;;;;5084333;28;20220;-69
2023/05/10 02:11:48;;;;;;;1.02;0.20;;;;;;;;;;5084641;28;20200;-69
2023/05/10 02:14:15;;;;;;;0.20;0.20;;;;;;;;;;5084344;28;20278;-70
2023/05/10 02:16:42;;;;;;;0.68;0.30;;;;;;;;;;5084388;28;20242;-70
2023/05/10 02:19:09;;;;;;;0.32;0.10;;;;;;;;;;5084383;28;20429;-70
2023/05/10 02:21:35;;;;;;;0.17;0.17;;;;;;;;;;5084111;28;20220;-70
2023/05/10 02:24:04;;;;;;;0.10;0.10;;;;;;;;;;5084623;28;20242;-70
2023/05/10 02:26:30;;;;;;;2.63;0.20;;;;;;;;;;5084563;28;20196;-70
2023/05/10 02:28:58;;;;;;;3.65;0.40;;;;;;;;;;5083822;28;20593;-70
2023/05/10 02:31:24;;;;;;;2.20;0.20;;;;;;;;;;5084074;28;20228;-70
2023/05/10 02:33:51;;;;;;;0.20;0.20;;;;;;;;;;5084116;28;20197;-70
2023/05/10 02:36:18;;;;;;;1.45;0.30;;;;;;;;;;5083931;28;20202;-70
2023/05/10 02:38:45;;;;;;;3.40;0.20;;;;;;;;;;5084120;28;20196;-70
2023/05/10 02:41:13;;;;;;;1.88;0.20;;;;;;;;;;5083857;28;20201;-70
2023/05/10 02:43:41;;;;;;;0.68;0.20;;;;;;;;;;5084176;28;20200;-70
2023/05/10 02:46:07;;;;;;;1.55;0.20;;;;;;;;;;5083971;28;20238;-70
2023/05/10 02:48:33;;;;;;;1.75;0.15;;;;;;;;;;5083670;28;20212;-70
2023/05/10 02:51:04;;;;;;;3.03;0.30;;;;;;;;;;5083639;28;20438;-70
2023/05/10 02:53:31;;;;;;;0.85;0.30;;;;;;;;;;5083775;28;20426;-70
2023/05/10 02:55:59;;;;;;;1.65;0.20;;;;;;;;;;5083834;28;20208;-70
2023/05/10 02:58:27;;;;;;;1.90;0.30;;;;;;;;;;5083648;28;20212;-70
2023/05/10 03:00:53;;;;;;;1.35;0.20;;;;;;;;;;5083509;28;20196;-70
2023/05/10 03:03:20;;;;;;;0.20;0.20;;;;;;;;;;5083399;28;20246;-70
2023/05/10 03:05:47;;;;;;;3.40;0.32;;;;;;;;;;5083636;28;20219;-70
2023/05/10 03:08:13;;;;;;;2.00;0.30;;;;;;;;;;5083533;28;20254;-70
2023/05/10 03:10:46;;;;;;;1.33;0.10;;;;;;;;;;5083166;28;20196;-70
2023/05/10 03:13:16;;;;;;;3.40;0.30;;;;;;;;;;5083292;28;20253;-70
2023/05/10 03:15:48;;;;;;;0.25;0.25;;;;;;;;;;5083268;28;20197;-70
2023/05/10 03:18:17;;;;;;;3.08;0.60;;;;;;;;;;5083257;28;20204;-70
2023/05/10 03:20:46;;;;;;;2.75;0.47;;;;;;;;;;5083008;28;20197;-70
2023/05/10 03:23:14;;;;;;;0.50;0.45;;;;;;;;;;5083200;28;20245;-70
2023/05/10 03:25:40;;;;;;;0.40;0.40;;;;;;;;;;5083101;28;20211;-70
2023/05/10 03:28:07;;;;;;;1.75;0.60;;;;;;;;;;5082942;28;20607;-70
2023/05/10 03:30:34;;;;;;;5.00;0.50;;;;;;;;;;5082677;28;20258;-70
2023/05/10 03:33:06;;;;;;;0.77;0.35;;;;;;;;;;5083217;28;20399;-70
2023/05/10 03:35:33;;;;;;;0.40;0.40;;;;;;;;;;5082975;28;20228;-70
2023/05/10 03:37:59;;;;;;;1.70;0.90;;;;;;;;;;5082965;28;20207;-70
2023/05/10 03:40:25;;;;;;;1.58;1.02;;;;;;;;;;5082086;28;20213;-70
2023/05/10 03:42:51;;;;;;;3.75;0.70;;;;;;;;;;5082711;28;20197;-70
2023/05/10 03:45:18;;;;;;;0.75;0.52;;;;;;;;;;5082908;28;20204;-70
2023/05/10 03:47:44;;;;;;;0.50;0.50;;;;;;;;;;5082806;28;20196;-70
2023/05/10 03:50:11;;;;;;;7.13;0.60;;;;;;;;;;5082630;28;20258;-70
2023/05/10 03:52:38;;;;;;;0.50;0.50;;;;;;;;;;5074460;28;20562;-70
2023/05/10 03:55:05;;;;;;;0.60;0.60;;;;;;;;;;5082643;28;20504;-70
2023/05/10 03:57:32;;;;;;;0.88;0.55;;;;;;;;;;5082265;28;20200;-70
2023/05/10 03:59:58;;;;;;;1.15;0.50;;;;;;;;;;5082389;28;20193;-70
2023/05/10 04:02:24;;;;;;;0.40;0.40;;;;;;;;;;5082731;28;20227;-70
2023/05/10 04:04:50;;;;;;;0.50;0.50;;;;;;;;;;5083060;28;20504;-70
2023/05/10 04:07:18;;;;;;;0.95;0.40;;;;;;;;;;5082338;28;20246;-70
2023/05/10 04:09:44;;;;;;;0.35;0.30;;;;;;;;;;5082042;28;20295;-70
2023/05/10 04:12:11;;;;;;;1.75;0.38;;;;;;;;;;5082472;28;20214;-70
2023/05/10 04:14:37;;;;;;;2.75;0.43;;;;;;;;;;5082317;28;20239;-70
2023/05/10 04:17:03;;;;;;;1.25;0.50;;;;;;;;;;5082721;28;20196;-71
2023/05/10 04:19:30;;;;;;;0.50;0.50;;;;;;;;;;5082291;28;20426;-71
2023/05/10 04:21:56;;;;;;;0.73;0.50;;;;;;;;;;5082203;28;20230;-71
2023/05/10 04:24:24;;;;;;;1.77;0.50;;;;;;;;;;5082088;28;20201;-71
2023/05/10 04:26:50;;;;;;;0.50;0.50;;;;;;;;;;5081869;28;20210;-71
2023/05/10 04:29:16;;;;;;;2.03;0.52;;;;;;;;;;5081971;28;20216;-71
2023/05/10 04:31:43;;;;;;;0.50;0.50;;;;;;;;;;5081980;28;20257;-71
2023/05/10 04:34:09;;;;;;;0.60;0.60;;;;;;;;;;5082390;28;20200;-71
2023/05/10 04:36:36;;;;;;;0.50;0.50;;;;;;;;;;5081921;28;20203;-72
2023/05/10 04:39:03;;;;;;;2.72;0.63;;;;;;;;;;5081798;28;20184;-71
2023/05/10 04:41:31;;;;;;;0.80;0.80;;;;;;;;;;5081841;28;20207;-71
2023/05/10 04:43:57;;;;;;;1.95;0.95;;;;;;;;;;5082002;28;20204;-71
2023/05/10 04:46:23;;;;;;;0.80;0.60;;;;;;;;;;5081869;28;20238;-69
2023/05/10 04:48:49;;;;;;;0.40;0.40;;;;;;;;;;5081845;28;20224;-70
2023/05/10 04:51:16;;;;;;;3.67;0.55;;;;;;;;;;5081436;28;20200;-70
2023/05/10 04:53:42;;;;;;;0.90;0.90;;;;;;;;;;5073461;28;20234;-70
2023/05/10 04:56:08;;;;;;;1.58;0.70;;;;;;;;;;5081903;28;20253;-71
2023/05/10 04:58:36;;;;;;;2.08;0.70;;;;;;;;;;5081609;28;20246;-71
2023/05/10 05:01:06;;;;;;;0.60;0.60;;;;;;;;;;5081650;28;20374;-72
2023/05/10 05:03:32;;;;;;;1.17;0.63;;;;;;;;;;5081469;28;20212;-71
2023/05/10 05:05:58;;;;;;;3.40;0.80;;;;;;;;;;5081766;28;20219;-70
2023/05/10 05:08:25;;;;;;;2.00;0.80;;;;;;;;;;5081536;28;20200;-70
2023/05/10 05:10:51;;;;;;;1.13;0.60;;;;;;;;;;5080997;28;20212;-70
2023/05/10 05:13:17;;;;;;;0.93;0.77;;;;;;;;;;5081608;28;20212;-71
2023/05/10 05:15:45;;;;;;;0.60;0.60;;;;;;;;;;5073554;28;20201;-71
2023/05/10 05:18:11;;;;;;;2.08;0.90;;;;;;;;;;5081423;28;20238;-70
2023/05/10 05:20:37;;;;;;;1.83;0.60;;;;;;;;;;5081116;28;20238;-70
2023/05/10 05:23:04;;;;;;;2.15;0.60;;;;;;;;;;5081655;28;20213;-70
2023/05/10 05:25:30;;;;;;;0.60;0.60;;;;;;;;;;5081213;28;20200;-70
2023/05/10 05:27:56;;;;;;;1.00;0.77;;;;;;;;;;5081409;28;20224;-70
2023/05/10 05:30:22;;;;;;;0.70;0.70;;;;;;;;;;5081046;28;20228;-70
2023/05/10 05:32:50;;;;;;;0.85;0.85;;;;;;;;;;5081490;28;20196;-70
2023/05/10 05:35:16;;;;;;;1.83;0.63;;;;;;;;;;5081251;28;20204;-70
2023/05/10 05:37:42;;;;;;;0.80;0.80;;;;;;;;;;5081288;28;20196;-70
2023/05/10 05:40:09;;;;;;;1.55;0.90;;;;;;;;;;5081198;28;20200;-70
2023/05/10 05:42:35;;;;;;;1.20;0.80;;;;;;;;;;5081300;28;20200;-70
2023/05/10 05:45:01;;;;;;;1.23;0.63;;;;;;;;;;5081297;28;20242;-70
2023/05/10 05:47:27;;;;;;;1.15;0.70;;;;;;;;;;5081150;28;20238;-70
2023/05/10 05:49:55;;;;;;;1.85;0.70;;;;;;;;;;5080991;28;20224;-70
2023/05/10 05:52:22;;;;;;;0.73;0.73;;;;;;;;;;5081400;28;20246;-70
2023/05/10 05:54:48;;;;;;;0.85;0.85;;;;;;;;;;5081293;28;20197;-70
2023/05/10 05:57:14;;;;;;;1.02;0.70;;;;;;;;;;5081141;28;20209;-70
2023/05/10 05:59:43;;;;;;;1.27;0.60;;;;;;;;;;5075826;28;20212;-70
2023/05/10 06:02:09;;;;;;;1.20;0.60;;;;;;;;;;5067651;28;20254;-70
2023/05/10 06:04:36;;;;;;;2.78;0.55;;;;;;;;;;5072577;28;20585;-61
2023/05/10 06:07:03;;;;;;;1.67;0.55;;;;;;;;;;5079424;28;20212;-60
2023/05/10 06:09:30;;;;;;;1.10;0.70;;;;;;;;;;5079560;28;20274;-60
2023/05/10 06:11:56;;;;;;;1.17;0.70;;;;;;;;;;5079359;28;20544;-60
2023/05/10 06:14:22;;;;;;;0.80;0.80;;;;;;;;;;5079284;28;20239;-60
2023/05/10 06:16:48;;;;;;;0.63;0.50;;;;;;;;;;5079418;28;20250;-60
2023/05/10 06:19:15;;;;;;;0.43;0.43;;;;;;;;;;5074842;28;20216;-59
2023/05/10 06:21:41;;;;;;;0.52;0.52;;;;;;;;;;5074019;28;20303;-60
2023/05/10 06:24:09;;;;;;;0.60;0.60;;;;;;;;;;5076941;28;20591;-59
2023/05/10 06:26:36;;;;;;;6.25;0.80;;;;;;;;;;5076739;28;20254;-60
2023/05/10 06:29:02;;;;;;;3.22;0.60;;;;;;;;;;5073979;28;20553;-60
2023/05/10 06:31:28;;;;;;;0.43;0.43;;;;;;;;;;5076262;28;20585;-59
2023/05/10 06:33:54;;;;;;;1.55;0.52;;;;;;;;;;5077651;28;20209;-60
2023/05/10 06:36:21;;;;;;;0.45;0.45;;;;;;;;;;5077155;28;20254;-60
2023/05/10 06:38:48;;;;;;;0.50;0.50;;;;;;;;;;5069010;28;20208;-60
2023/05/10 06:41:15;;;;;;;2.83;0.57;;;;;;;;;;5078104;28;20492;-61
2023/05/10 06:43:43;;;;;;;0.55;0.55;;;;;;;;;;5077132;28;20456;-60
2023/05/10 06:46:09;;;;;;;0.75;0.60;;;;;;;;;;5077682;28;20240;-60
2023/05/10 06:48:35;;;;;;;0.73;0.70;;;;;;;;;;5076888;28;20220;-60
2023/05/10 06:51:01;;;;;;;0.60;0.60;;;;;;;;;;5076609;28;20433;-60
2023/05/10 06:53:28;;;;;;;0.63;0.63;;;;;;;;;;5076703;28;20534;-60
2023/05/10 06:55:54;;;;;;;1.75;0.60;;;;;;;;;;5076767;28;20468;-60
2023/05/10 06:58:22;;;;;;;2.60;0.70;;;;;;;;;;5077538;28;20216;-60
2023/05/10 07:00:48;;;;;;;0.95;0.50;;;;;;;;;;5073899;28;20276;-60
2023/05/10 07:03:15;;;;;;;1.00;0.60;;;;;;;;;;5077476;28;20284;-60
2023/05/10 07:05:41;;;;;;;1.65;0.50;;;;;;;;;;5076326;28;20408;-60
2023/05/10 07:08:08;;;;;;;1.40;0.55;;;;;;;;;;5076621;28;20235;-60
2023/05/10 07:10:34;;;;;;;0.50;0.50;;;;;;;;;;5076599;28;20457;-61
2023/05/10 07:13:01;;;;;;;5.13;0.85;;;;;;;;;;5075499;28;20220;-60
2023/05/10 07:15:28;;;;;;;0.40;0.40;;;;;;;;;;5075102;28;20603;-60
2023/05/10 07:17:55;;;;;;;1.35;0.43;;;;;;;;;;5077250;28;20249;-60
2023/05/10 07:20:21;;;;;;;0.88;0.45;;;;;;;;;;5076120;28;20208;-60
2023/05/10 07:22:47;;;;;;;0.75;0.75;;;;;;;;;;5075861;28;20208;-60
2023/05/10 07:25:14;;;;;;;0.68;0.68;;;;;;;;;;5077370;28;20216;-59
2023/05/10 07:27:40;;;;;;;0.63;0.63;;;;;;;;;;5076791;28;20228;-60
2023/05/10 07:30:07;;;;;;;0.70;0.70;;;;;;;;;;5075544;28;20270;-60
2023/05/10 07:32:34;;;;;;;0.90;0.90;;;;;;;;;;5076201;28;20331;-60
2023/05/10 07:35:00;;;;;;;0.88;0.60;;;;;;;;;;5076758;28;20252;-59
2023/05/10 07:37:27;;;;;;;1.50;0.60;;;;;;;;;;5076218;28;20445;-60
2023/05/10 07:39:53;;;;;;;1.17;0.85;;;;;;;;;;5075972;28;20232;-60
2023/05/10 07:42:19;;;;;;;0.50;0.50;;;;;;;;;;5076767;28;20454;-59
2023/05/10 07:44:45;;;;;;;1.85;0.93;;;;;;;;;;5066614;28;20423;-59
2023/05/10 07:47:12;;;;;;;1.75;0.63;;;;;;;;;;5067035;28;20697;-61
2023/05/10 07:49:39;;;;;;;1.42;0.68;;;;;;;;;;5067847;28;20212;-59
2023/05/10 07:52:06;;;;;;;0.73;0.70;;;;;;;;;;5069550;28;20569;-60
2023/05/10 07:54:33;;;;;;;0.70;0.70;;;;;;;;;;5075738;28;20219;-59
2023/05/10 07:57:00;;;;;;;3.05;0.60;;;;;;;;;;5076370;28;20215;-60
2023/05/10 07:59:26;;;;;;;0.70;0.70;;;;;;;;;;5075650;28;20212;-60
2023/05/10 08:01:52;;;;;;;1.33;0.80;;;;;;;;;;5075071;28;20204;-59
2023/05/10 08:04:18;;;;;;;1.13;0.93;;;;;;;;;;5076475;28;20213;-60
2023/05/10 08:06:46;;;;;;;2.17;0.70;;;;;;;;;;5075803;28;20216;-60
2023/05/10 08:09:12;;;;;;;2.40;0.75;;;;;;;;;;5075689;28;20212;-59
2023/05/10 08:11:38;;;;;;;0.90;0.90;;;;;;;;;;5075082;28;20382;-60
2023/05/10 08:14:05;;;;;;;0.95;0.70;;;;;;;;;;5075851;28;20268;-61
2023/05/10 08:16:32;;;;;;;0.80;0.80;;;;;;;;;;5075135;28;20334;-61
2023/05/10 08:18:58;;;;;;;1.92;0.60;;;;;;;;;;5075432;28;20516;-59
2023/05/10 08:21:24;;;;;;;1.40;0.70;;;;;;;;;;5074892;28;20212;-60
2023/05/10 08:23:52;;;;;;;3.95;0.73;;;;;;;;;;5075064;28;20528;-60
2023/05/10 08:26:18;;;;;;;0.40;0.40;;;;;;;;;;5074729;28;20222;-60
2023/05/10 08:28:44;;;;;;;2.42;0.60;;;;;;;;;;5076153;28;20232;-60
2023/05/10 08:31:10;;;;;;;0.50;0.50;;;;;;;;;;5074613;28;20544;-60
2023/05/10 08:33:37;;;;;;;0.65;0.65;;;;;;;;;;5075284;28;20212;-60
2023/05/10 08:36:03;;;;;;;1.33;0.50;;;;;;;;;;5074574;28;20204;-60
2023/05/10 08:38:29;;;;;;;1.63;0.63;;;;;;;;;;5075388;28;20375;-62
2023/05/10 08:40:58;;;;;;;1.08;0.80;;;;;;;;;;5074709;28;20204;-62
2023/05/10 08:43:27;;;;;;;0.55;0.40;;;;;;;;;;5074840;28;20437;-61
2023/05/10 08:45:53;;;;;;;2.72;0.60;;;;;;;;;;5075009;28;20209;-62
2023/05/10 08:48:20;;;;;;;0.50;0.50;;;;;;;;;;5074770;28;20212;-62
2023/05/10 08:50:48;;;;;;;1.20;0.60;;;;;;;;;;5074810;28;20246;-62
2023/05/10 08:53:15;;;;;;;0.50;0.50;;;;;;;;;;5075180;28;20445;-62
2023/05/10 08:55:42;;;;;;;1.80;0.60;;;;;;;;;;5074744;28;20258;-61
2023/05/10 08:58:10;;;;;;;0.57;0.57;;;;;;;;;;5075936;28;20212;-62
2023/05/10 09:00:37;;;;;;;0.60;0.60;;;;;;;;;;5075367;28;20208;-60
2023/05/10 09:03:04;;;;;;;0.95;0.40;;;;;;;;;;5074886;28;20415;-60
2023/05/10 09:05:30;;;;;;;1.48;0.50;;;;;;;;;;5074726;28;20207;-60
2023/05/10 09:07:56;;;;;;;1.60;0.68;;;;;;;;;;5069227;28;20554;-59
2023/05/10 09:10:25;;;;;;;0.85;0.50;;;;;;;;;;5075045;28;20293;-60
2023/05/10 09:12:52;;;;;;;0.50;0.50;;;;;;;;;;5075266;28;20219;-60
2023/05/10 09:15:20;;;;;;;0.63;0.50;;;;;;;;;;5075130;28;20628;-60
2023/05/10 09:17:46;;;;;;;0.80;0.47;;;;;;;;;;5074757;28;20536;-61
2023/05/10 09:20:13;;;;;;;0.32;0.32;;;;;;;;;;5074181;28;20208;-60
2023/05/10 09:22:39;;;;;;;0.50;0.43;;;;;;;;;;5075127;28;20257;-63
2023/05/10 09:25:06;;;;;;;0.93;0.60;;;;;;;;;;5075307;28;20212;-63
2023/05/10 09:27:33;;;;;;;0.50;0.50;;;;;;;;;;5075162;28;20228;-63
2023/05/10 09:29:59;;;;;;;0.93;0.40;;;;;;;;;;5075778;28;20209;-63
2023/05/10 09:32:37;;;;;;;1.02;0.43;;;;;;;;;;5074728;28;20543;-60
2023/05/10 09:35:07;;;;;;;1.05;0.50;;;;;;;;;;5064198;28;20208;-60
2023/05/10 09:37:33;;;;;;;1.63;0.50;;;;;;;;;;5076509;28;20212;-62
2023/05/10 09:39:59;;;;;;;0.77;0.77;;;;;;;;;;5078879;28;20204;-61
2023/05/10 09:42:26;;;;;;;0.70;0.50;;;;;;;;;;5079209;28;20216;-61
2023/05/10 09:44:52;;;;;;;1.55;0.50;;;;;;;;;;5078739;28;20236;-61
2023/05/10 09:47:18;;;;;;;0.50;0.50;;;;;;;;;;5078573;28;20706;-61
2023/05/10 09:49:49;;;;;;;0.50;0.50;;;;;;;;;;5077835;28;20258;-61
2023/05/10 09:52:16;;;;;;;0.45;0.45;;;;;;;;;;5078516;28;20273;-61
2023/05/10 09:54:46;;;;;;;1.15;0.60;;;;;;;;;;5078320;28;20212;-61
2023/05/10 09:57:20;;;;;;;3.03;0.80;;;;;;;;;;5077986;28;20654;-60
2023/05/10 09:59:47;;;;;;;0.52;0.52;;;;;;;;;;5076100;28;20210;-60
2023/05/10 10:02:14;;;;;;;0.68;0.68;;;;;;;;;;5078487;28;20462;-60
2023/05/10 10:04:40;;;;;;;0.93;0.57;;;;;;;;;;5078161;28;20212;-60
2023/05/10 10:07:08;;;;;;;1.90;0.60;;;;;;;;;;5077474;28;20219;-60
2023/05/10 10:09:35;;;;;;;1.85;0.40;;;;;;;;;;5078332;28;20278;-61
2023/05/10 10:12:01;;;;;;;0.70;0.70;;;;;;;;;;5077141;28;20228;-61
2023/05/10 10:14:28;;;;;;;2.50;0.60;;;;;;;;;;5078601;28;20220;-61
2023/05/10 10:16:55;;;;;;;0.50;0.50;;;;;;;;;;5077651;28;20576;-61
2023/05/10 10:19:21;;;;;;;0.93;0.77;;;;;;;;;;5077883;28;20216;-60
2023/05/10 10:21:48;;;;;;;1.27;0.82;;;;;;;;;;5077618;28;20211;-60
2023/05/10 10:24:15;;;;;;;0.73;0.60;;;;;;;;;;5076973;28;20212;-61
2023/05/10 10:26:43;;;;;;;0.60;0.60;;;;;;;;;;5078077;28;20423;-61
2023/05/10 10:29:14;;;;;;;0.70;0.70;;;;;;;;;;5077472;28;20224;-61
2023/05/10 10:31:45;;;;;;;1.27;0.52;;;;;;;;;;5076288;28;21224;-61
2023/05/10 10:34:17;;;;;;;0.65;0.65;;;;;;;;;;5077364;28;20212;-62
2023/05/10 10:36:45;;;;;;;2.58;0.63;;;;;;;;;;5077477;28;20578;-61
2023/05/10 10:39:12;;;;;;;1.05;0.70;;;;;;;;;;5077689;28;20250;-60
2023/05/10 10:41:43;;;;;;;1.98;0.73;;;;;;;;;;5077336;28;20460;-60
2023/05/10 10:44:41;;;;;;;2.30;0.60;;;;;;;;;;5077804;28;20216;-61
2023/05/10 10:47:12;;;;;;;0.70;0.57;;;;;;;;;;5022675;28;20242;-61
2023/05/10 10:49:42;;;;;;;1.40;0.45;;;;;;;;;;5061969;28;20600;-61
2023/05/10 10:52:16;;;;;;;0.63;0.50;;;;;;;;;;5076495;28;20461;-61
2023/05/10 10:54:42;;;;;;;0.45;0.45;;;;;;;;;;5075151;28;20212;-62
2023/05/10 10:57:13;;;;;;;1.85;0.47;;;;;;;;;;5077415;28;20212;-61
2023/05/10 10:59:42;;;;;;;0.85;0.55;;;;;;;;;;5077367;28;20523;-61
2023/05/10 11:02:09;;;;;;;0.52;0.50;;;;;;;;;;5077085;28;20287;-61
2023/05/10 11:04:42;;;;;;;0.30;0.30;;;;;;;;;;5078522;28;20599;-61
2023/05/10 11:07:18;;;;;;;1.73;0.38;;;;;;;;;;5060859;28;20213;-62
2023/05/10 11:09:44;;;;;;;1.45;0.30;;;;;;;;;;5060684;28;20458;-62
2023/05/10 11:12:11;;;;;;;0.65;0.40;;;;;;;;;;5075555;28;20232;-61
2023/05/10 11:14:38;;;;;;;0.50;0.50;;;;;;;;;;5074318;28;20571;-62
2023/05/10 11:17:19;;;;;;;1.58;0.50;;;;;;;;;;5063532;28;20249;-61
2023/05/10 11:20:01;;;;;;;1.30;0.40;;;;;;;;;;5073303;28;20308;-61
2023/05/10 11:22:27;;;;;;;0.85;0.60;;;;;;;;;;5062806;28;20232;-61
2023/05/10 11:24:57;;;;;;;0.43;0.40;;;;;;;;;;5076938;28;20280;-60
2023/05/10 11:27:24;;;;;;;0.93;0.30;;;;;;;;;;5073675;28;20233;-59
2023/05/10 11:29:53;;;;;;;3.35;0.47;;;;;;;;;;5066060;28;20393;-61
2023/05/10 11:32:20;;;;;;;0.50;0.50;;;;;;;;;;5076149;28;20228;-60
2023/05/10 11:34:48;;;;;;;0.82;0.40;;;;;;;;;;5074177;28;20266;-60
2023/05/10 11:37:14;;;;;;;1.55;0.50;;;;;;;;;;5076173;28;20247;-61
2023/05/10 11:39:46;;;;;;;1.80;0.50;;;;;;;;;;5071603;28;20258;-59
2023/05/10 11:42:12;;;;;;;2.30;0.60;;;;;;;;;;5071896;28;20223;-60
2023/05/10 11:44:39;;;;;;;3.42;0.70;;;;;;;;;;5073663;28;20213;-60
2023/05/10 11:47:06;;;;;;;1.85;0.57;;;;;;;;;;5073524;28;20219;-62
2023/05/10 11:49:33;;;;;;;1.48;0.45;;;;;;;;;;5073158;28;20213;-60
2023/05/10 11:52:06;;;;;;;2.58;0.50;;;;;;;;;;5077337;28;20277;-60
2023/05/10 11:54:34;;;;;;;0.73;0.52;;;;;;;;;;5079663;28;20516;-60
2023/05/10 11:57:00;;;;;;;1.75;0.40;;;;;;;;;;5069278;28;20243;-60
2023/05/10 11:59:27;;;;;;;0.50;0.50;;;;;;;;;;5069781;28;20253;-59
2023/05/10 12:01:53;;;;;;;2.17;0.50;;;;;;;;;;5067402;28;20561;-60
2023/05/10 12:04:21;;;;;;;3.03;0.90;;;;;;;;;;5066599;28;20342;-60
2023/05/10 12:06:47;;;;;;;1.27;0.60;;;;;;;;;;5069018;28;20605;-59
2023/05/10 12:09:14;;;;;;;0.60;0.40;;;;;;;;;;5079484;28;20255;-60
2023/05/10 12:11:41;;;;;;;1.80;0.90;;;;;;;;;;5074310;28;20598;-60
2023/05/10 12:14:08;;;;;;;2.17;0.90;;;;;;;;;;5071378;28;20321;-63
2023/05/10 12:16:35;;;;;;;2.42;0.63;;;;;;;;;;5064837;28;20254;-63
2023/05/10 12:19:01;;;;;;;1.45;0.80;;;;;;;;;;5076448;28;20535;-63
2023/05/10 12:21:30;;;;;;;1.30;0.77;;;;;;;;;;5073150;28;20213;-63
2023/05/10 12:24:00;;;;;;;1.85;0.60;;;;;;;;;;5071247;28;20279;-63
2023/05/10 12:26:27;;;;;;;3.67;0.50;;;;;;;;;;5067984;28;20437;-63
2023/05/10 12:28:53;;;;;;;1.70;0.52;;;;;;;;;;5073930;28;20232;-63
2023/05/10 12:31:19;;;;;;;0.60;0.60;;;;;;;;;;5063611;28;20271;-63
2023/05/10 12:33:47;;;;;;;1.95;0.70;;;;;;;;;;5074081;28;20582;-60
2023/05/10 12:36:14;;;;;;;0.95;0.70;;;;;;;;;;5070834;28;20240;-59
2023/05/10 12:38:43;;;;;;;1.48;0.55;;;;;;;;;;5071356;28;20589;-60
2023/05/10 12:41:10;;;;;;;1.15;0.50;;;;;;;;;;5059931;28;20480;-60
2023/05/10 12:43:36;;;;;;;1.02;0.88;;;;;;;;;;5073852;28;20254;-59
2023/05/10 12:46:06;;;;;;;1.00;0.47;;;;;;;;;;5063916;28;20250;-60
2023/05/10 12:48:33;;;;;;;1.23;0.47;;;;;;;;;;5079241;28;20212;-61
2023/05/10 12:51:00;;;;;;;0.57;0.50;;;;;;;;;;5070839;28;20257;-60
2023/05/10 12:53:26;;;;;;;0.95;0.70;;;;;;;;;;5078303;28;20743;-60
2023/05/10 12:55:54;;;;;;;2.40;0.68;;;;;;;;;;5076903;28;20212;-60
2023/05/10 12:58:20;;;;;;;0.60;0.60;;;;;;;;;;5065599;28;20499;-59
2023/05/10 13:00:47;;;;;;;5.03;1.00;;;;;;;;;;5076791;28;20219;-60
2023/05/10 13:03:13;;;;;;;2.85;0.82;;;;;;;;;;5078406;28;20217;-60
2023/05/10 13:05:39;;;;;;;1.38;0.70;;;;;;;;;;5074033;28;20440;-59
2023/05/10 13:08:05;;;;;;;5.63;0.80;;;;;;;;;;5059929;28;20394;-60
2023/05/10 13:10:32;;;;;;;2.25;0.90;;;;;;;;;;5074577;28;20507;-59
2023/05/10 13:13:00;;;;;;;1.80;0.80;;;;;;;;;;5078601;28;20443;-60
2023/05/10 13:15:26;;;;;;;1.98;0.93;;;;;;;;;;5070526;28;20393;-60
2023/05/10 13:17:52;;;;;;;4.85;1.08;;;;;;;;;;5075705;28;20262;-59
2023/05/10 13:20:19;;;;;;;0.73;0.73;;;;;;;;;;5073718;28;20224;-61
2023/05/10 13:22:45;;;;;;;3.95;1.30;;;;;;;;;;5081618;28;20207;-60
2023/05/10 13:25:11;;;;;;;1.10;1.10;;;;;;;;;;5072598;28;20208;-59
2023/05/10 13:27:38;;;;;;;1.40;1.20;;;;;;;;;;5078740;28;20240;-59
2023/05/10 13:30:06;;;;;;;3.25;1.35;;;;;;;;;;5071652;28;20254;-61
2023/05/10 13:32:33;;;;;;;1.00;1.00;;;;;;;;;;5069264;28;20231;-60
2023/05/10 13:34:59;;;;;;;4.35;0.93;;;;;;;;;;5081860;28;20223;-60
2023/05/10 13:37:25;;;;;;;1.33;1.23;;;;;;;;;;5069854;28;20508;-60
2023/05/10 13:39:52;;;;;;;3.85;1.60;;;;;;;;;;5076375;28;20208;-61
2023/05/10 13:42:18;;;;;;;3.63;1.30;;;;;;;;;;5080396;28;20209;-61
2023/05/10 13:44:44;;;;;;;1.25;1.17;;;;;;;;;;5082596;28;20212;-61
2023/05/10 13:47:12;;;;;;;3.38;0.98;;;;;;;;;;5078072;28;20209;-61
2023/05/10 13:49:38;;;;;;;6.85;1.20;;;;;;;;;;5074228;28;20244;-61
2023/05/10 13:52:06;;;;;;;1.95;0.80;;;;;;;;;;5071577;28;20305;-60
2023/05/10 13:54:32;;;;;;;3.40;1.15;;;;;;;;;;5077224;28;20236;-60
2023/05/10 13:56:59;;;;;;;1.05;0.80;;;;;;;;;;5063110;28;20227;-60
2023/05/10 13:59:25;;;;;;;0.80;0.80;;;;;;;;;;5076866;28;20447;-60
2023/05/10 14:01:51;;;;;;;2.97;1.00;;;;;;;;;;5073816;28;20241;-59
2023/05/10 14:04:19;;;;;;;3.28;1.05;;;;;;;;;;5079218;28;20208;-60
2023/05/10 14:06:45;;;;;;;5.28;1.30;;;;;;;;;;5081590;28;20239;-60
2023/05/10 14:09:11;;;;;;;1.38;1.23;;;;;;;;;;5062737;28;20251;-60
2023/05/10 14:11:41;;;;;;;1.88;0.85;;;;;;;;;;5078082;28;20229;-60
2023/05/10 14:14:07;;;;;;;3.90;1.35;;;;;;;;;;5076733;28;20228;-61
2023/05/10 14:16:34;;;;;;;3.30;0.85;;;;;;;;;;5078562;28;20287;-61
2023/05/10 14:19:00;;;;;;;1.80;1.15;;;;;;;;;;5078540;28;20243;-60
2023/05/10 14:21:28;;;;;;;1.90;1.08;;;;;;;;;;5077845;28;20221;-61
2023/05/10 14:23:55;;;;;;;2.63;1.10;;;;;;;;;;5078198;28;20216;-61
2023/05/10 14:26:21;;;;;;;5.85;1.20;;;;;;;;;;5078819;28;20244;-61
2023/05/10 14:28:48;;;;;;;5.00;1.20;;;;;;;;;;5077376;28;20220;-60
2023/05/10 14:31:16;;;;;;;4.78;1.25;;;;;;;;;;5077637;28;20212;-60
2023/05/10 14:33:42;;;;;;;3.90;1.00;;;;;;;;;;5077119;28;20244;-60
2023/05/10 14:36:09;;;;;;;5.80;1.02;;;;;;;;;;5077843;28;20527;-61
2023/05/10 14:38:36;;;;;;;1.80;1.20;;;;;;;;;;5078294;28;20212;-60
2023/05/10 14:41:03;;;;;;;4.50;1.15;;;;;;;;;;5077694;28;20270;-61
2023/05/10 14:43:30;;;;;;;2.10;0.90;;;;;;;;;;5078159;28;20389;-61